createdAt,value
2023-04-15T00:01:49.213Z,8.80
2023-04-15T00:04:16.236Z,8.70
2023-04-15T00:06:43.232Z,10.00
2023-04-15T00:09:10.303Z,8.70
2023-04-15T00:11:37.245Z,8.60
2023-04-15T00:14:04.519Z,9.70
2023-04-15T00:16:31.514Z,10.60
2023-04-15T00:18:58.996Z,8.60
2023-04-15T00:21:27.604Z,9.70
2023-04-15T00:23:54.650Z,9.20
2023-04-15T00:26:21.559Z,8.70
2023-04-15T00:28:50.384Z,9.20
2023-04-15T00:31:17.312Z,8.40
2023-04-15T00:33:44.710Z,8.40
2023-04-15T00:36:11.627Z,8.40
2023-04-15T00:38:39.182Z,8.80
2023-04-15T00:41:06.189Z,8.40
2023-04-15T00:43:33.069Z,10.00
2023-04-15T00:46:00.907Z,8.40
2023-04-15T00:48:28.666Z,8.50
2023-04-15T00:50:55.508Z,9.60
2023-04-15T00:53:22.375Z,8.80
2023-04-15T00:55:49.723Z,9.90
2023-04-15T00:58:17.301Z,9.80
2023-04-15T01:00:44.548Z,8.50
2023-04-15T01:03:11.843Z,10.60
2023-04-15T01:05:39.307Z,9.10
2023-04-15T01:08:06.674Z,9.40
2023-04-15T01:10:33.927Z,9.50
2023-04-15T01:13:01.326Z,10.30
2023-04-15T01:15:28.284Z,8.50
2023-04-15T01:17:55.272Z,8.50
2023-04-15T01:20:22.275Z,8.50
2023-04-15T01:22:50.110Z,9.00
2023-04-15T01:25:27.190Z,9.60
2023-04-15T01:27:54.169Z,8.70
2023-04-15T01:30:21.823Z,8.60
2023-04-15T01:32:48.683Z,8.60
2023-04-15T01:35:15.610Z,9.60
2023-04-15T01:37:42.883Z,8.60
2023-04-15T01:40:10.088Z,9.00
2023-04-15T01:42:37.723Z,8.50
2023-04-15T01:45:05.338Z,10.00
2023-04-15T01:47:32.255Z,8.50
2023-04-15T01:49:59.141Z,8.80
2023-04-15T01:52:26.223Z,10.40
2023-04-15T01:54:53.024Z,10.00
2023-04-15T01:57:19.887Z,8.50
2023-04-15T01:59:47.007Z,9.20
2023-04-15T02:02:15.563Z,9.40
2023-04-15T02:04:42.595Z,8.60
2023-04-15T02:07:09.585Z,9.00
2023-04-15T02:09:36.421Z,10.40
2023-04-15T02:12:03.293Z,8.60
2023-04-15T02:14:30.794Z,8.60
2023-04-15T02:16:57.729Z,10.30
2023-04-15T02:19:25.244Z,8.50
2023-04-15T02:21:52.236Z,8.60
2023-04-15T02:24:19.075Z,8.50
2023-04-15T02:26:46.649Z,9.30
2023-04-15T02:29:13.626Z,9.10
2023-04-15T02:31:42.262Z,8.50
2023-04-15T02:34:09.243Z,8.60
2023-04-15T02:36:36.218Z,8.60
2023-04-15T02:39:05.299Z,8.70
2023-04-15T02:41:32.144Z,8.80
2023-04-15T02:43:59.294Z,9.50
2023-04-15T02:46:27.472Z,8.90
2023-04-15T02:48:54.452Z,8.90
2023-04-15T02:51:23.327Z,10.00
2023-04-15T02:53:51.083Z,9.00
2023-04-15T02:56:19.515Z,9.10
2023-04-15T02:58:46.822Z,9.10
2023-04-15T03:01:13.842Z,9.10
2023-04-15T03:03:41.747Z,10.50
2023-04-15T03:06:09.145Z,9.60
2023-04-15T03:08:37.101Z,9.20
2023-04-15T03:11:04.914Z,9.80
2023-04-15T03:13:33.186Z,9.20
2023-04-15T03:16:06.667Z,9.40
2023-04-15T03:18:33.701Z,9.30
2023-04-15T03:21:03.193Z,9.30
2023-04-15T03:23:33.248Z,9.30
2023-04-15T03:26:04.559Z,9.30
2023-04-15T03:28:33.166Z,9.40
2023-04-15T03:31:01.190Z,9.30
2023-04-15T03:33:28.594Z,9.70
2023-04-15T03:35:55.653Z,9.90
2023-04-15T03:38:22.546Z,10.10
2023-04-15T03:40:49.384Z,9.30
2023-04-15T03:43:16.599Z,9.30
2023-04-15T03:45:43.652Z,9.30
2023-04-15T03:48:16.442Z,9.30
2023-04-15T03:50:44.607Z,9.60
2023-04-15T03:53:11.510Z,9.30
2023-04-15T03:55:38.333Z,9.30
2023-04-15T03:58:05.239Z,9.30
2023-04-15T04:00:32.212Z,9.30
2023-04-15T04:02:59.294Z,10.20
2023-04-15T04:05:26.339Z,10.40
2023-04-15T04:07:53.315Z,9.60
2023-04-15T04:10:20.195Z,9.30
2023-04-15T04:12:47.136Z,11.40
2023-04-15T04:15:14.025Z,10.70
2023-04-15T04:17:40.893Z,10.30
2023-04-15T04:20:08.393Z,10.90
2023-04-15T04:22:41.315Z,9.20
2023-04-15T04:25:08.771Z,9.30
2023-04-15T04:27:36.070Z,9.30
2023-04-15T04:30:03.140Z,9.50
2023-04-15T04:32:30.314Z,9.20
2023-04-15T04:34:57.160Z,10.20
2023-04-15T04:37:24.704Z,9.20
2023-04-15T04:39:51.644Z,9.10
2023-04-15T04:42:18.582Z,9.80
2023-04-15T04:44:45.388Z,9.20
2023-04-15T04:47:12.269Z,9.20
2023-04-15T04:49:39.372Z,10.90
2023-04-15T04:52:06.600Z,9.00
2023-04-15T04:54:33.758Z,9.00
2023-04-15T04:57:00.898Z,10.80
2023-04-15T04:59:28.196Z,10.00
2023-04-15T05:01:55.109Z,9.20
2023-04-15T05:04:22.420Z,9.90
2023-04-15T05:06:49.202Z,10.20
2023-04-15T05:09:16.160Z,11.10
2023-04-15T05:11:42.967Z,8.90
2023-04-15T05:14:10.017Z,8.90
2023-04-15T05:16:36.851Z,9.40
2023-04-15T05:19:03.794Z,8.80
2023-04-15T05:21:31.704Z,11.10
2023-04-15T05:23:58.559Z,8.80
2023-04-15T05:26:25.464Z,8.80
2023-04-15T05:28:52.326Z,9.10
2023-04-15T05:31:19.497Z,9.30
2023-04-15T05:33:46.930Z,8.80
2023-04-15T05:36:13.899Z,8.80
2023-04-15T05:38:41.050Z,9.70
2023-04-15T05:41:07.922Z,8.80
2023-04-15T05:43:34.797Z,10.20
2023-04-15T05:46:01.657Z,8.70
2023-04-15T05:48:28.571Z,8.90
2023-04-15T05:50:55.503Z,8.90
2023-04-15T05:53:22.442Z,8.80
2023-04-15T05:55:49.304Z,9.00
2023-04-15T05:58:16.237Z,8.90
2023-04-15T06:00:43.888Z,8.90
2023-04-15T06:03:11.871Z,9.80
2023-04-15T06:05:38.788Z,10.60
2023-04-15T06:08:05.901Z,10.50
2023-04-15T06:10:36.596Z,8.80
2023-04-15T06:13:04.333Z,8.80
2023-04-15T06:15:31.769Z,8.80
2023-04-15T06:17:59.153Z,8.80
2023-04-15T06:20:26.220Z,8.80
2023-04-15T06:22:53.161Z,9.50
2023-04-15T06:25:19.978Z,8.80
2023-04-15T06:27:47.250Z,9.10
2023-04-15T06:30:14.334Z,8.80
2023-04-15T06:32:41.658Z,8.70
2023-04-15T06:35:10.151Z,8.70
2023-04-15T06:37:36.963Z,8.70
2023-04-15T06:40:05.237Z,9.10
2023-04-15T06:42:32.387Z,8.70
2023-04-15T06:44:59.276Z,8.70
2023-04-15T06:47:26.229Z,8.70
2023-04-15T06:49:53.154Z,8.70
2023-04-15T06:52:22.928Z,8.70
2023-04-15T06:54:49.759Z,8.70
2023-04-15T06:57:16.659Z,8.70
2023-04-15T06:59:43.560Z,8.70
2023-04-15T07:02:13.302Z,8.70
2023-04-15T07:04:40.483Z,8.70
2023-04-15T07:07:08.311Z,8.70
2023-04-15T07:09:35.481Z,8.70
2023-04-15T07:12:02.800Z,8.80
2023-04-15T07:14:30.169Z,8.80
2023-04-15T07:16:57.657Z,8.80
2023-04-15T07:19:24.638Z,8.80
2023-04-15T07:21:51.573Z,8.80
2023-04-15T07:24:20.097Z,8.80
2023-04-15T07:26:47.214Z,9.10
2023-04-15T07:29:14.187Z,8.80
2023-04-15T07:31:42.281Z,8.80
2023-04-15T07:34:09.391Z,8.80
2023-04-15T07:36:36.854Z,8.80
2023-04-15T07:39:04.505Z,8.80
2023-04-15T07:41:31.749Z,8.70
2023-04-15T07:43:59.003Z,8.70
2023-04-15T07:46:27.336Z,8.70
2023-04-15T07:48:54.465Z,8.70
2023-04-15T07:51:21.409Z,9.30
2023-04-15T07:53:49.556Z,8.70
2023-04-15T07:56:16.489Z,8.70
2023-04-15T07:58:43.853Z,8.70
2023-04-15T08:01:10.723Z,8.70
2023-04-15T08:03:37.873Z,8.60
2023-04-15T08:06:04.926Z,8.70
2023-04-15T08:08:32.116Z,8.60
2023-04-15T08:10:59.255Z,8.60
2023-04-15T08:13:27.091Z,8.70
2023-04-15T08:16:14.485Z,8.60
2023-04-15T08:18:41.907Z,8.60
2023-04-15T08:21:09.388Z,8.60
2023-04-15T08:23:36.488Z,9.50
2023-04-15T08:26:03.486Z,8.60
2023-04-15T08:28:30.772Z,9.90
2023-04-15T08:30:57.827Z,8.60
2023-04-15T08:33:24.660Z,8.60
2023-04-15T08:35:51.674Z,8.80
2023-04-15T08:38:18.984Z,8.60
2023-04-15T08:40:46.285Z,8.90
2023-04-15T08:43:20.186Z,8.60
2023-04-15T08:45:48.650Z,8.50
2023-04-15T08:48:17.027Z,8.60
2023-04-15T08:50:44.358Z,8.60
2023-04-15T08:53:11.963Z,8.60
2023-04-15T08:55:44.940Z,9.70
2023-04-15T08:58:12.823Z,8.60
2023-04-15T09:00:40.695Z,8.50
2023-04-15T09:03:08.913Z,8.50
2023-04-15T09:05:37.260Z,8.50
2023-04-15T09:08:05.665Z,8.60
2023-04-15T09:10:33.647Z,8.50
2023-04-15T09:13:02.075Z,10.60
2023-04-15T09:15:30.358Z,9.60
2023-04-15T09:17:57.376Z,8.50
2023-04-15T09:20:24.637Z,8.50
2023-04-15T09:22:56.144Z,9.20
2023-04-15T09:25:23.266Z,8.50
2023-04-15T09:27:56.302Z,8.40
2023-04-15T09:30:24.185Z,8.40
2023-04-15T09:32:57.144Z,8.50
2023-04-15T09:35:25.634Z,8.50
2023-04-15T09:37:53.359Z,8.50
2023-04-15T09:40:40.255Z,8.50
2023-04-15T09:43:09.791Z,8.50
2023-04-15T09:45:37.209Z,8.60
2023-04-15T09:48:21.785Z,8.60
2023-04-15T09:50:49.786Z,8.60
2023-04-15T09:53:26.582Z,8.60
2023-04-15T09:55:55.883Z,8.60
2023-04-15T09:58:30.328Z,8.60
2023-04-15T10:00:59.920Z,8.70
2023-04-15T10:03:29.573Z,10.80
2023-04-15T10:05:58.638Z,9.00
2023-04-15T10:08:28.281Z,8.50
2023-04-15T10:10:56.191Z,8.60
2023-04-15T10:13:28.813Z,8.60
2023-04-15T10:15:58.390Z,8.60
2023-04-15T10:18:31.636Z,8.60
2023-04-15T10:21:01.304Z,9.20
2023-04-15T10:23:28.863Z,10.00
2023-04-15T10:25:57.551Z,8.70
2023-04-15T10:28:24.951Z,8.60
2023-04-15T10:30:53.528Z,8.60
2023-04-15T10:33:23.668Z,9.60
2023-04-15T10:35:52.728Z,8.70
2023-04-15T10:38:37.559Z,8.70
2023-04-15T10:41:20.226Z,8.70
2023-04-15T10:44:04.512Z,8.80
2023-04-15T10:46:42.702Z,8.70
2023-04-15T10:49:16.157Z,8.70
2023-04-15T10:51:45.138Z,9.40
2023-04-15T10:54:33.309Z,8.70
2023-04-15T10:57:06.811Z,8.70
2023-04-15T10:59:37.876Z,8.70
2023-04-15T11:02:08.832Z,8.70
2023-04-15T11:05:00.087Z,8.70
2023-04-15T11:07:41.123Z,8.70
2023-04-15T11:10:13.901Z,8.80
2023-04-15T11:12:42.158Z,8.80
2023-04-15T11:15:31.116Z,8.80
2023-04-15T11:18:00.384Z,8.90
2023-04-15T11:20:27.536Z,8.90
2023-04-15T11:23:13.832Z,8.90
2023-04-15T11:25:43.196Z,8.90
2023-04-15T11:28:12.280Z,8.90
2023-04-15T11:30:40.612Z,8.90
2023-04-15T11:33:09.853Z,8.90
2023-04-15T11:35:37.304Z,9.00
2023-04-15T11:38:06.150Z,9.00
2023-04-15T11:40:35.887Z,9.00
2023-04-15T11:43:06.769Z,9.10
2023-04-15T11:45:33.952Z,9.10
2023-04-15T11:48:07.198Z,9.10
2023-04-15T11:50:36.090Z,9.00
2023-04-15T11:53:08.263Z,9.10
2023-04-15T11:56:02.403Z,9.10
2023-04-15T11:58:29.828Z,9.00
2023-04-15T12:01:01.503Z,9.10
2023-04-15T12:03:44.721Z,9.10
2023-04-15T12:06:28.226Z,9.20
2023-04-15T12:09:01.185Z,9.10
2023-04-15T12:11:31.290Z,9.10
2023-04-15T12:14:20.935Z,9.10
2023-04-15T12:16:51.796Z,9.20
2023-04-15T12:19:29.680Z,9.20
2023-04-15T12:22:04.719Z,9.10
2023-04-15T12:24:34.593Z,9.20
2023-04-15T12:27:03.763Z,9.20
2023-04-15T12:29:32.332Z,9.20
2023-04-15T12:32:24.990Z,9.20
2023-04-15T12:34:54.496Z,8.20
2023-04-15T12:37:22.553Z,9.10
2023-04-15T12:39:50.634Z,9.10
2023-04-15T12:42:18.416Z,9.10
2023-04-15T12:44:45.848Z,9.20
2023-04-15T12:47:13.894Z,9.20
2023-04-15T12:49:43.912Z,11.40
2023-04-15T12:52:10.962Z,9.20
2023-04-15T12:54:38.473Z,9.20
2023-04-15T12:57:07.438Z,9.20
2023-04-15T12:59:36.049Z,9.20
2023-04-15T13:02:03.948Z,9.40
2023-04-15T13:04:32.924Z,9.20
2023-04-15T13:07:02.825Z,9.20
2023-04-15T13:09:30.087Z,9.30
2023-04-15T13:11:57.738Z,9.20
2023-04-15T13:14:24.794Z,9.20
2023-04-15T13:16:56.285Z,9.30
2023-04-15T13:19:23.559Z,9.30
2023-04-15T13:21:52.366Z,9.30
2023-04-15T13:24:19.516Z,9.30
2023-04-15T13:26:48.580Z,9.30
2023-04-15T13:29:18.851Z,9.40
2023-04-15T13:31:50.229Z,9.30
2023-04-15T13:34:17.564Z,9.40
2023-04-15T13:36:44.486Z,10.60
2023-04-15T13:39:11.408Z,9.50
2023-04-15T13:41:38.515Z,9.40
2023-04-15T13:44:08.053Z,9.40
2023-04-15T13:46:35.840Z,9.40
2023-04-15T13:49:02.923Z,9.40
2023-04-15T13:51:29.830Z,9.40
2023-04-15T13:53:58.204Z,9.40
2023-04-15T13:56:25.190Z,9.30
2023-04-15T13:58:55.070Z,9.40
2023-04-15T14:01:22.577Z,9.40
2023-04-15T14:03:49.666Z,9.40
2023-04-15T14:06:16.995Z,9.40
2023-04-15T14:08:44.078Z,9.40
2023-04-15T14:11:11.108Z,9.40
2023-04-15T14:13:38.329Z,9.40
2023-04-15T14:16:08.180Z,9.40
2023-04-15T14:18:40.652Z,9.40
2023-04-15T14:21:08.527Z,9.40
2023-04-15T14:23:35.825Z,9.40
2023-04-15T14:26:05.938Z,9.40
2023-04-15T14:28:33.027Z,9.40
2023-04-15T14:31:00.711Z,9.50
2023-04-15T14:33:30.271Z,9.50
2023-04-15T14:36:00.647Z,9.40
2023-04-15T14:38:28.202Z,9.40
2023-04-15T14:40:55.136Z,9.40
2023-04-15T14:43:22.235Z,9.40
2023-04-15T14:45:49.794Z,9.40
2023-04-15T14:48:17.189Z,9.40
2023-04-15T14:50:44.200Z,9.40
2023-04-15T14:53:11.602Z,9.50
2023-04-15T14:55:38.839Z,9.50
2023-04-15T14:58:08.342Z,9.50
2023-04-15T15:00:36.189Z,9.50
2023-04-15T15:03:04.119Z,9.50
2023-04-15T15:05:31.331Z,9.50
2023-04-15T15:07:58.697Z,9.50
2023-04-15T15:10:34.768Z,9.50
2023-04-15T15:13:13.724Z,9.50
2023-04-15T15:15:41.368Z,9.60
2023-04-15T15:18:08.398Z,9.60
2023-04-15T15:20:36.110Z,9.70
2023-04-15T15:23:06.985Z,9.60
2023-04-15T15:25:34.633Z,9.60
2023-04-15T15:28:01.779Z,9.70
2023-04-15T15:30:28.722Z,9.70
2023-04-15T15:32:57.592Z,9.70
2023-04-15T15:35:26.169Z,9.70
2023-04-15T15:37:53.431Z,9.70
2023-04-15T15:40:20.804Z,9.70
2023-04-15T15:42:51.033Z,9.80
2023-04-15T15:45:18.280Z,9.80
2023-04-15T15:47:45.396Z,9.70
2023-04-15T15:50:14.180Z,9.80
2023-04-15T15:52:41.661Z,9.80
2023-04-15T15:55:09.216Z,9.80
2023-04-15T15:57:36.793Z,9.80
2023-04-15T16:00:11.835Z,9.80
2023-04-15T16:05:12.589Z,9.80
2023-04-15T16:07:39.780Z,9.80
2023-04-15T16:10:07.544Z,9.80
2023-04-15T16:12:35.111Z,9.90
2023-04-15T16:15:03.052Z,9.90
2023-04-15T16:17:30.312Z,9.80
2023-04-15T16:20:00.679Z,9.90
2023-04-15T16:22:28.444Z,10.20
2023-04-15T16:24:55.969Z,9.90
2023-04-15T16:27:23.821Z,10.00
2023-04-15T16:29:51.030Z,9.90
2023-04-15T16:32:18.289Z,9.90
2023-04-15T16:34:46.477Z,9.90
2023-04-15T16:37:13.811Z,9.90
2023-04-15T16:39:41.610Z,9.90
2023-04-15T16:42:10.593Z,9.90
2023-04-15T16:44:37.704Z,9.90
2023-04-15T16:47:06.096Z,10.40
2023-04-15T16:49:36.145Z,9.90
2023-04-15T16:52:06.324Z,9.90
2023-04-15T16:54:36.306Z,9.90
2023-04-15T16:57:04.153Z,9.90
2023-04-15T16:59:31.870Z,9.90
2023-04-15T17:02:00.274Z,9.90
2023-04-15T17:04:28.634Z,10.00
2023-04-15T17:06:56.177Z,10.00
2023-04-15T17:09:23.419Z,10.00
2023-04-15T17:11:51.233Z,10.00
2023-04-15T17:14:21.243Z,10.00
2023-04-15T17:16:48.996Z,10.00
2023-04-15T17:19:16.359Z,10.00
2023-04-15T17:21:43.412Z,10.00
2023-04-15T17:24:11.226Z,10.10
2023-04-15T17:26:39.202Z,10.00
2023-04-15T17:29:06.684Z,10.00
2023-04-15T17:31:34.176Z,10.10
2023-04-15T17:34:08.936Z,10.10
2023-04-15T17:36:38.176Z,10.10
2023-04-15T17:39:06.195Z,10.10
2023-04-15T17:41:34.069Z,10.10
2023-04-15T17:44:01.605Z,10.10
2023-04-15T17:46:29.135Z,10.10
2023-04-15T17:48:56.461Z,10.10
2023-04-15T17:51:23.591Z,10.10
2023-04-15T17:54:07.631Z,10.10
2023-04-15T17:56:35.917Z,10.10
2023-04-15T17:59:03.947Z,10.10
2023-04-15T18:01:31.598Z,10.10
2023-04-15T18:03:59.090Z,10.10
2023-04-15T18:06:27.555Z,10.20
2023-04-15T18:08:55.342Z,10.10
2023-04-15T18:11:23.621Z,10.10
2023-04-15T18:13:50.940Z,10.10
2023-04-15T18:16:18.356Z,10.20
2023-04-15T18:18:46.278Z,10.10
2023-04-15T18:21:14.090Z,10.10
2023-04-15T18:23:41.989Z,10.10
2023-04-15T18:26:09.683Z,10.10
2023-04-15T18:28:40.538Z,10.40
2023-04-15T18:31:08.421Z,10.20
2023-04-15T18:33:36.474Z,10.10
2023-04-15T18:36:04.594Z,10.10
2023-04-15T18:38:32.040Z,10.10
2023-04-15T18:40:59.920Z,10.10
2023-04-15T18:43:28.207Z,10.20
2023-04-15T18:45:55.488Z,10.20
2023-04-15T18:48:28.861Z,11.00
2023-04-15T18:50:58.829Z,10.10
2023-04-15T18:53:25.975Z,10.20
2023-04-15T18:55:53.225Z,10.20
2023-04-15T18:58:20.673Z,10.20
2023-04-15T19:00:48.215Z,10.20
2023-04-15T19:03:16.098Z,10.20
2023-04-15T19:05:43.756Z,10.30
2023-04-15T19:08:11.118Z,10.30
2023-04-15T19:10:38.729Z,10.20
2023-04-15T19:13:06.990Z,10.30
2023-04-15T19:15:34.449Z,10.30
2023-04-15T19:18:02.190Z,10.30
2023-04-15T19:20:31.871Z,10.30
2023-04-15T19:22:59.866Z,10.30
2023-04-15T19:25:27.287Z,11.60
2023-04-15T19:27:54.268Z,10.30
2023-04-15T19:30:21.919Z,10.30
2023-04-15T19:32:49.547Z,10.20
2023-04-15T19:35:17.405Z,10.30
2023-04-15T19:37:45.064Z,10.30
2023-04-15T19:40:12.250Z,10.20
2023-04-15T19:42:39.503Z,10.30
2023-04-15T19:45:07.478Z,10.30
2023-04-15T19:47:34.836Z,10.30
2023-04-15T19:50:02.044Z,10.30
2023-04-15T19:52:29.343Z,10.30
2023-04-15T19:54:56.489Z,10.30
2023-04-15T19:57:23.643Z,10.30
2023-04-15T19:59:50.870Z,10.30
2023-04-15T20:02:18.005Z,10.30
2023-04-15T20:04:45.078Z,10.30
2023-04-15T20:07:12.065Z,10.30
2023-04-15T20:09:39.295Z,10.30
2023-04-15T20:12:49.611Z,10.30
2023-04-15T20:14:53.892Z,10.30
2023-04-15T20:17:20.922Z,10.30
2023-04-15T20:19:48.329Z,10.30
2023-04-15T20:22:16.149Z,10.40
2023-04-15T20:24:43.172Z,10.30
2023-04-15T20:27:10.114Z,10.30
2023-04-15T20:29:37.781Z,10.30
2023-04-15T20:32:04.992Z,10.40
2023-04-15T20:34:31.980Z,10.30
2023-04-15T20:36:58.840Z,10.40
2023-04-15T20:39:25.817Z,10.80
2023-04-15T20:41:52.796Z,10.40
2023-04-15T20:44:19.728Z,10.40
2023-04-15T20:46:46.726Z,10.40
2023-04-15T20:49:13.937Z,10.40
2023-04-15T20:51:40.941Z,10.40
2023-04-15T20:54:07.777Z,11.20
2023-04-15T20:56:34.814Z,10.30
2023-04-15T20:59:01.881Z,10.30
2023-04-15T21:01:28.896Z,10.40
2023-04-15T21:03:55.816Z,10.30
2023-04-15T21:06:22.786Z,10.40
2023-04-15T21:08:49.646Z,10.30
2023-04-15T21:11:28.404Z,10.40
2023-04-15T21:14:07.214Z,10.80
2023-04-15T21:16:34.186Z,10.30
2023-04-15T21:19:01.293Z,10.40
2023-04-15T21:21:28.513Z,10.30
2023-04-15T21:23:56.059Z,10.40
2023-04-15T21:26:23.117Z,10.40
2023-04-15T21:28:49.999Z,10.40
2023-04-15T21:31:16.891Z,10.40
2023-04-15T21:33:43.861Z,10.30
2023-04-15T21:36:10.913Z,10.30
2023-04-15T21:38:37.783Z,10.40
2023-04-15T21:41:09.710Z,10.40
2023-04-15T21:43:39.775Z,10.40
2023-04-15T21:46:22.838Z,10.40
2023-04-15T21:48:54.847Z,10.40
2023-04-15T21:51:21.921Z,10.40
2023-04-15T21:53:48.781Z,10.40
2023-04-15T21:56:15.950Z,10.40
2023-04-15T21:58:43.101Z,10.40
2023-04-15T22:01:10.187Z,11.60
2023-04-15T22:03:37.402Z,10.40
2023-04-15T22:06:04.718Z,10.40
2023-04-15T22:08:41.336Z,10.40
2023-04-15T22:11:30.326Z,10.40
2023-04-15T22:13:58.347Z,10.40
2023-04-15T22:16:26.555Z,10.60
2023-04-15T22:18:54.267Z,10.40
2023-04-15T22:21:21.238Z,10.40
2023-04-15T22:23:51.940Z,10.40
2023-04-15T22:26:18.931Z,10.80
2023-04-15T22:28:45.760Z,10.50
2023-04-15T22:31:13.721Z,10.30
2023-04-15T22:33:40.675Z,10.40
2023-04-15T22:36:07.621Z,10.30
2023-04-15T22:38:34.460Z,10.40
2023-04-15T22:41:01.642Z,10.40
2023-04-15T22:43:28.592Z,10.40
2023-04-15T22:45:55.670Z,10.40
2023-04-15T22:48:22.980Z,10.40
2023-04-15T22:50:50.253Z,10.40
2023-04-15T22:53:17.876Z,10.40
2023-04-15T22:55:46.692Z,10.40
2023-04-15T22:58:14.123Z,10.60
2023-04-15T23:00:41.036Z,10.40
2023-04-15T23:03:08.211Z,10.60
2023-04-15T23:05:35.228Z,10.50
2023-04-15T23:08:03.180Z,10.40
2023-04-15T23:10:30.069Z,10.40
2023-04-15T23:12:56.878Z,10.40
2023-04-15T23:15:23.836Z,10.40
2023-04-15T23:17:54.265Z,11.50
2023-04-15T23:20:21.204Z,12.50
2023-04-15T23:22:51.246Z,10.40
2023-04-15T23:25:20.509Z,10.40
2023-04-15T23:27:47.348Z,10.50
2023-04-15T23:30:15.092Z,10.50
2023-04-15T23:32:41.980Z,11.10
2023-04-15T23:35:09.386Z,10.50
2023-04-15T23:37:36.252Z,10.50
2023-04-15T23:40:03.171Z,10.90
2023-04-15T23:42:30.007Z,10.40
2023-04-15T23:44:56.882Z,10.50
2023-04-15T23:47:23.833Z,10.50
2023-04-15T23:49:50.826Z,10.50
2023-04-15T23:52:17.718Z,10.50
2023-04-15T23:54:44.708Z,10.50
2023-04-15T23:57:11.689Z,10.50
2023-04-15T23:59:38.784Z,10.40
